createdAt,value
2018-09-02T00:05:26.417Z,0.0
2018-09-02T00:15:40.383Z,0.0
2018-09-02T00:25:54.696Z,0.0
2018-09-02T00:36:09.484Z,0.0
2018-09-02T00:46:53.624Z,0.0
2018-09-02T00:57:07.980Z,0.0
2018-09-02T01:07:22.022Z,0.0
2018-09-02T01:17:36.566Z,0.0
2018-09-02T01:27:50.540Z,0.0
2018-09-02T01:38:04.633Z,0.0
2018-09-02T01:48:19.103Z,0.0
2018-09-02T01:59:03.782Z,0.0
2018-09-02T02:09:17.900Z,0.0
2018-09-02T02:19:31.903Z,0.0
2018-09-02T02:29:45.300Z,0.0
2018-09-02T02:39:59.847Z,0.0
2018-09-02T02:50:11.963Z,0.0
2018-09-02T03:00:26.292Z,0.0
2018-09-02T03:10:40.885Z,0.0
2018-09-02T03:20:52.855Z,0.0
2018-09-02T03:31:37.513Z,0.0
2018-09-02T03:42:22.243Z,0.0
2018-09-02T03:52:33.855Z,0.0
2018-09-02T04:02:48.409Z,0.0
2018-09-02T04:13:02.380Z,4.0
2018-09-02T04:23:46.652Z,12.0
2018-09-02T04:34:01.043Z,56.0
2018-09-02T04:44:15.187Z,168.0
2018-09-02T04:54:30.262Z,360.0
2018-09-02T05:05:26.580Z,628.0
2018-09-02T05:18:31.183Z,960.0
2018-09-02T05:29:27.088Z,1440.0
2018-09-02T05:39:41.201Z,1836.0
2018-09-02T05:49:55.353Z,2356.0
2018-09-02T06:00:43.484Z,2988.0
2018-09-02T06:11:11.223Z,3308.0
2018-09-02T06:21:25.206Z,3700.0
2018-09-02T06:31:39.512Z,4168.0
2018-09-02T06:43:24.096Z,4692.0
2018-09-02T06:53:37.451Z,5300.0
2018-09-02T07:04:51.777Z,12288.0
2018-09-02T07:15:06.611Z,16704.0
2018-09-02T07:25:59.257Z,17984.0
2018-09-02T07:36:13.427Z,21600.0
2018-09-02T07:47:15.280Z,24160.0
2018-09-02T07:58:59.144Z,28480.0
2018-09-02T08:09:43.362Z,28736.0
2018-09-02T08:20:28.563Z,34176.0
2018-09-02T08:32:28.301Z,30720.0
2018-09-02T08:43:54.832Z,41632.0
2018-09-02T08:56:31.287Z,46880.0
2018-09-02T09:06:48.560Z,44288.0
2018-09-02T09:30:48.457Z,54464.0
2018-09-02T09:43:46.748Z,59040.0
2018-09-02T09:57:37.541Z,62432.0
2018-09-02T10:07:52.010Z,62112.0
2018-09-02T10:23:21.570Z,68960.0
2018-09-02T10:35:11.922Z,68992.0
2018-09-02T10:45:59.709Z,57536.0
2018-09-02T10:56:52.143Z,68704.0
2018-09-02T11:14:20.176Z,75520.0
2018-09-02T11:29:03.299Z,72320.0
2018-09-02T12:06:41.045Z,69760.0
2018-09-02T12:17:06.210Z,64832.0
2018-09-02T12:27:20.102Z,63360.0
2018-09-02T12:37:48.995Z,68864.0
2018-09-02T12:48:02.515Z,65312.0
2018-09-02T12:58:20.278Z,66304.0
2018-09-02T13:09:15.530Z,58880.0
2018-09-02T13:20:01.283Z,63872.0
2018-09-02T13:30:13.290Z,56064.0
2018-09-02T13:40:59.159Z,51360.0
2018-09-02T13:51:13.522Z,47168.0
2018-09-02T14:01:57.986Z,21600.0
2018-09-02T14:12:48.119Z,22304.0
2018-09-02T14:23:05.938Z,21856.0
2018-09-02T14:33:25.710Z,21152.0
2018-09-02T14:44:16.967Z,20960.0
2018-09-02T14:54:34.056Z,36832.0
2018-09-02T15:04:49.349Z,24000.0
2018-09-02T15:25:18.665Z,7252.0
2018-09-02T15:35:32.859Z,6660.0
2018-09-02T15:45:50.300Z,6000.0
2018-09-02T15:56:07.043Z,5796.0
2018-09-02T16:06:26.364Z,5472.0
2018-09-02T16:16:44.690Z,5048.0
2018-09-02T16:27:29.531Z,4576.0
2018-09-02T16:37:44.694Z,4100.0
2018-09-02T16:48:29.655Z,3456.0
2018-09-02T16:58:43.937Z,3176.0
2018-09-02T17:08:57.851Z,3360.0
2018-09-02T17:19:11.611Z,3108.0
2018-09-02T17:29:28.359Z,1956.0
2018-09-02T17:40:13.206Z,1108.0
2018-09-02T17:50:59.583Z,692.0
2018-09-02T18:01:14.742Z,364.0
2018-09-02T18:11:29.355Z,180.0
2018-09-02T18:22:25.212Z,68.0
2018-09-02T18:32:38.685Z,20.0
2018-09-02T18:43:24.334Z,4.0
2018-09-02T18:53:44.942Z,0.0
2018-09-02T19:03:58.980Z,0.0
2018-09-02T19:14:45.177Z,0.0
2018-09-02T19:25:34.347Z,0.0
2018-09-02T19:35:48.965Z,0.0
2018-09-02T19:46:03.309Z,0.0
2018-09-02T19:56:47.494Z,0.0
2018-09-02T20:07:01.332Z,0.0
2018-09-02T20:17:15.531Z,0.0
2018-09-02T20:28:00.139Z,0.0
2018-09-02T20:38:14.594Z,0.0
2018-09-02T20:48:59.862Z,0.0
2018-09-02T20:59:14.913Z,0.0
2018-09-02T21:09:29.366Z,0.0
2018-09-02T21:19:43.592Z,0.0
2018-09-02T21:30:31.844Z,0.0
2018-09-02T21:40:46.400Z,0.0
2018-09-02T21:50:59.713Z,0.0
2018-09-02T22:01:14.299Z,0.0
2018-09-02T22:11:28.230Z,0.0
2018-09-02T22:21:42.333Z,0.0
2018-09-02T22:31:57.116Z,0.0
2018-09-02T22:42:10.817Z,0.0
2018-09-02T22:52:24.739Z,0.0
2018-09-02T23:02:39.004Z,0.0
2018-09-02T23:12:50.642Z,0.0
2018-09-02T23:23:34.987Z,0.0
2018-09-02T23:33:49.379Z,0.0
2018-09-02T23:44:03.425Z,0.0
2018-09-02T23:54:16.641Z,0.0
